Time;durP1;ratioP1;P1;durP2;ratioP2;P2;SDS_P1;SDS_P2;PMS_P1;PMS_P2;Temp;Humidity;BMP_temperature;BMP_pressure;BME280_temperature;BME280_humidity;BME280_pressure;Samples;Min_cycle;Max_cycle;Signal;HPM_P1;HPM_P2
2023/06/11 00:01:58;;;;;;;;;;;21.50;44.40;;;17.57;73.91;95218.94;5002074;28;19909;-53
2023/06/11 00:04:25;;;;;;;;;;;21.40;44.50;;;17.44;75.19;95217.22;4993399;28;19909;-54
2023/06/11 00:07:02;;;;;;;;;;;21.30;45.20;;;17.32;75.94;95223.22;4992574;28;19953;-51
2023/06/11 00:09:28;;;;;;;;;;;21.20;44.60;;;17.29;75.70;95224.63;4993410;28;19960;-50
2023/06/11 00:11:55;;;;;;;;;;;21.20;44.80;;;17.37;75.16;95222.28;4993340;28;19944;-50
2023/06/11 00:14:23;;;;;;;;;;;21.20;44.90;;;17.43;75.20;95229.88;5001460;28;19916;-54
2023/06/11 00:16:50;;;;;;;;;;;21.10;45.00;;;17.48;75.04;95223.53;4993406;28;19913;-51
2023/06/11 00:19:17;;;;;;;;;;;21.10;45.10;;;17.47;74.98;95221.97;4997189;28;19996;-49
2023/06/11 00:21:46;;;;;;;;;;;21.10;45.10;;;17.48;74.75;95228.91;4991779;28;19913;-49
2023/06/11 00:24:14;;;;;;;;;;;21.10;45.20;;;17.47;75.18;95219.25;4993299;28;19916;-49
2023/06/11 00:26:41;;;;;;;;;;;21.10;45.30;;;17.42;76.38;95224.78;5002701;28;19917;-51
2023/06/11 00:29:08;;;;;;;;;;;21.10;45.30;;;17.35;75.99;95231.44;4992787;28;20008;-51
2023/06/11 00:31:35;;;;;;;;;;;21.10;45.40;;;17.31;76.63;95237.78;4995164;28;19933;-53
2023/06/11 00:34:02;;;;;;;;;;;21.10;45.40;;;17.24;77.02;95224.81;4992861;28;20012;-54
2023/06/11 00:36:29;;;;;;;;;;;21.10;45.50;;;17.22;76.85;95229.69;4995685;28;19909;-51
2023/06/11 00:38:56;;;;;;;;;;;21.00;45.50;;;17.14;77.22;95224.28;4995202;28;20414;-51
2023/06/11 00:41:24;;;;;;;;;;;21.00;45.50;;;17.08;77.63;95232.53;4992845;28;19955;-52
2023/06/11 00:43:54;;;;;;;;;;;20.90;45.60;;;17.03;78.03;95231.88;5002456;28;20326;-56
2023/06/11 00:46:21;;;;;;;;;;;20.90;45.70;;;16.92;79.53;95236.75;4992856;28;19915;-53
2023/06/11 00:48:49;;;;;;;;;;;20.80;45.80;;;16.87;79.25;95232.31;4995170;28;19913;-56
2023/06/11 00:51:22;;;;;;;;;;;20.80;46.00;;;16.83;79.23;95234.06;5001140;28;19952;-51
2023/06/11 00:53:48;;;;;;;;;;;20.70;45.90;;;16.78;79.36;95228.03;4992778;28;19909;-53
2023/06/11 00:56:17;;;;;;;;;;;20.60;46.00;;;16.70;79.79;95231.44;4979804;28;19932;-56
2023/06/11 00:58:45;;;;;;;;;;;20.50;46.10;;;16.62;79.86;95233.81;4992895;28;20287;-57
2023/06/11 01:01:19;;;;;;;;;;;20.50;46.30;;;16.55;80.15;95230.78;4992119;28;19920;-56
2023/06/11 01:03:52;;;;;;;;;;;20.40;46.40;;;16.42;80.93;95232.47;5011005;28;20384;-53
2023/06/11 01:06:21;;;;;;;;;;;20.30;46.50;;;16.39;81.72;95226.91;5013137;23;19927;-45
2023/06/11 01:08:57;;;;;;;;;;;20.30;46.60;;;16.36;81.92;95231.00;5011019;28;19917;-46
2023/06/11 01:11:23;;;;;;;;;;;20.20;46.70;;;16.35;81.68;95225.94;5013731;28;19913;-45
2023/06/11 01:13:51;;;;;;;;;;;20.20;46.80;;;16.33;82.54;95228.16;5014947;28;19916;-48
2023/06/11 01:16:37;;;;;;;;;;;20.20;46.90;;;16.37;82.17;95226.44;5014624;28;19916;-46
2023/06/11 01:19:28;;;;;;;;;;;20.20;47.00;;;16.33;82.59;95226.25;5014672;28;20437;-46
2023/06/11 01:22:01;;;;;;;;;;;20.10;47.10;;;16.31;82.53;95231.13;5015971;28;19913;-46
2023/06/11 01:24:48;;;;;;;;;;;20.10;47.20;;;16.32;82.63;95227.34;5013536;28;19912;-50
2023/06/11 01:27:45;;;;;;;;;;;20.10;47.30;;;16.35;82.82;95226.72;5015452;28;19913;-47
2023/06/11 01:30:17;;;;;;;;;;;20.10;47.40;;;16.35;83.05;95226.72;5014883;28;19909;-46
2023/06/11 01:32:53;;;;;;;;;;;20.00;47.50;;;16.39;82.79;95233.09;5015670;28;20007;-48
2023/06/11 01:35:19;;;;;;;;;;;20.10;47.60;;;16.40;82.94;95234.66;5014532;28;19913;-46
2023/06/11 01:37:45;;;;;;;;;;;20.10;47.60;;;16.42;82.45;95227.09;5014313;28;19909;-48
2023/06/11 01:40:14;;;;;;;;;;;20.10;47.70;;;16.40;82.63;95226.59;5015562;28;19920;-50
2023/06/11 01:42:40;;;;;;;;;;;20.10;47.70;;;16.36;82.35;95230.22;5014891;28;20254;-46
2023/06/11 01:45:07;;;;;;;;;;;20.10;47.80;;;16.29;82.81;95232.53;5015471;28;19909;-51
2023/06/11 01:47:33;;;;;;;;;;;20.00;47.70;;;16.18;82.95;95232.03;5015530;28;19909;-52
2023/06/11 01:49:59;;;;;;;;;;;20.00;47.80;;;16.09;82.92;95231.97;5013375;28;19967;-46
2023/06/11 01:52:25;;;;;;;;;;;20.00;47.90;;;16.00;82.68;95238.41;5015208;28;20422;-47
2023/06/11 01:54:51;;;;;;;;;;;19.90;48.50;;;15.90;83.32;95231.38;5014321;28;19908;-50
2023/06/11 01:57:17;;;;;;;;;;;19.90;48.00;;;15.79;84.00;95235.41;5015427;28;19909;-49
2023/06/11 01:59:43;;;;;;;;;;;19.70;48.00;;;15.69;83.98;95237.25;5014935;28;19924;-46
2023/06/11 02:02:09;;;;;;;;;;;19.70;48.10;;;15.59;83.99;95242.81;5014434;28;19909;-50
2023/06/11 02:04:35;;;;;;;;;;;19.60;48.20;;;15.47;84.97;95240.66;5015419;28;20039;-49
2023/06/11 02:07:01;;;;;;;;;;;19.60;48.30;;;15.37;87.40;95243.59;5012302;28;19920;-47
2023/06/11 02:09:27;;;;;;;;;;;19.50;48.40;;;15.19;91.42;95244.53;5015145;28;19909;-47
2023/06/11 02:11:52;;;;;;;;;;;19.40;48.50;;;15.05;92.99;95244.56;5015296;28;19908;-51
2023/06/11 02:14:18;;;;;;;;;;;19.30;48.60;;;14.95;94.11;95234.84;5013939;28;20007;-51
2023/06/11 02:16:44;;;;;;;;;;;19.20;48.70;;;14.88;94.79;95231.75;5014899;28;19912;-47
2023/06/11 02:19:10;;;;;;;;;;;19.10;48.90;;;14.89;94.29;95244.09;5008922;28;19964;-48
2023/06/11 02:21:35;;;;;;;;;;;19.00;49.00;;;14.81;94.55;95232.16;5013879;28;19955;-47
2023/06/11 02:24:01;;;;;;;;;;;18.90;49.20;;;14.74;94.62;95236.34;5014550;28;19909;-49
2023/06/11 02:26:27;;;;;;;;;;;18.80;49.30;;;14.65;95.40;95243.50;5014001;28;19916;-53
2023/06/11 02:28:52;;;;;;;;;;;18.70;49.40;;;14.54;95.98;95248.25;5014639;28;19947;-50
2023/06/11 02:31:18;;;;;;;;;;;18.70;49.60;;;14.43;98.30;95246.84;5013643;28;20023;-52
2023/06/11 02:33:44;;;;;;;;;;;18.60;49.80;;;14.34;99.26;95250.19;5014404;28;20357;-47
2023/06/11 02:36:10;;;;;;;;;;;18.50;49.90;;;14.30;99.17;95249.22;5013403;28;19915;-49
2023/06/11 02:38:35;;;;;;;;;;;18.40;50.00;;;14.28;98.33;95246.03;5014637;28;19917;-46
2023/06/11 02:41:01;;;;;;;;;;;18.40;50.20;;;14.25;98.59;95243.16;5014485;28;19959;-51
2023/06/11 02:43:27;;;;;;;;;;;18.30;50.30;;;14.22;98.68;95241.06;5013300;28;20070;-46
2023/06/11 02:45:53;;;;;;;;;;;18.30;50.50;;;14.19;99.14;95253.16;5014321;28;19908;-48
2023/06/11 02:48:18;;;;;;;;;;;18.20;50.50;;;14.13;99.98;95243.63;5012773;28;19909;-47
2023/06/11 02:50:44;;;;;;;;;;;18.20;50.70;;;14.15;99.57;95259.41;5014045;28;20383;-48
2023/06/11 02:53:10;;;;;;;;;;;18.10;50.80;;;14.11;100.00;95257.31;5014396;28;19936;-47
2023/06/11 02:55:35;;;;;;;;;;;18.10;50.90;;;14.11;100.00;95265.34;5007613;28;20347;-47
2023/06/11 02:58:01;;;;;;;;;;;18.10;51.10;;;14.09;100.00;95266.72;5013858;28;20430;-47
2023/06/11 03:00:27;;;;;;;;;;;18.00;51.10;;;14.08;100.00;95265.94;5010239;28;19925;-51
2023/06/11 03:02:52;;;;;;;;;;;18.00;51.20;;;14.04;100.00;95259.59;5008264;28;19917;-48
2023/06/11 03:05:18;;;;;;;;;;;18.00;51.40;;;14.07;100.00;95263.53;5013943;28;20363;-49
2023/06/11 03:07:44;;;;;;;;;;;18.00;51.40;;;14.03;100.00;95263.34;5012490;28;19921;-47
2023/06/11 03:10:10;;;;;;;;;;;18.00;51.60;;;14.06;100.00;95262.75;5014014;28;20011;-51
2023/06/11 03:12:36;;;;;;;;;;;18.00;51.60;;;14.04;100.00;95264.13;5013001;28;20272;-51
2023/06/11 03:15:02;;;;;;;;;;;18.00;51.70;;;14.01;100.00;95262.84;5013775;28;20375;-49
2023/06/11 03:17:28;;;;;;;;;;;17.90;51.70;;;13.98;100.00;95257.28;5013690;28;19909;-51
2023/06/11 03:19:53;;;;;;;;;;;17.90;51.70;;;13.92;100.00;95258.47;5007183;28;19924;-49
2023/06/11 03:22:19;;;;;;;;;;;17.90;51.80;;;13.91;100.00;95267.56;5013843;28;19917;-49
2023/06/11 03:24:45;;;;;;;;;;;17.90;51.90;;;13.88;100.00;95261.72;5012915;28;19909;-50
2023/06/11 03:27:11;;;;;;;;;;;17.90;52.00;;;13.88;100.00;95266.25;5013261;28;20016;-47
2023/06/11 03:29:37;;;;;;;;;;;17.90;52.10;;;13.85;100.00;95264.16;5013403;28;19909;-46
2023/06/11 03:32:03;;;;;;;;;;;17.90;52.10;;;13.70;100.00;95259.09;5012603;28;19909;-47
2023/06/11 03:34:28;;;;;;;;;;;17.80;52.10;;;13.71;100.00;95253.41;5011054;28;19909;-48
2023/06/11 03:36:55;;;;;;;;;;;17.70;52.20;;;13.77;100.00;95251.47;5011993;28;19963;-46
2023/06/11 03:39:20;;;;;;;;;;;17.80;52.40;;;13.82;100.00;95257.53;5013223;28;19916;-48
2023/06/11 03:41:46;;;;;;;;;;;17.80;52.50;;;13.85;100.00;95259.63;5013208;28;20363;-49
2023/06/11 03:44:12;;;;;;;;;;;17.80;52.60;;;13.88;100.00;95259.06;5012133;28;20260;-49
2023/06/11 03:46:38;;;;;;;;;;;17.80;52.60;;;13.86;100.00;95263.09;5013238;28;19909;-53
2023/06/11 03:49:03;;;;;;;;;;;17.80;52.70;;;13.83;100.00;95269.03;5011772;28;19920;-46
2023/06/11 03:51:30;;;;;;;;;;;17.80;52.70;;;13.80;100.00;95267.72;5013177;28;20363;-51
2023/06/11 03:53:55;;;;;;;;;;;17.80;52.80;;;13.79;100.00;95270.72;5013180;28;19978;-47
2023/06/11 03:56:30;;;;;;;;;;;17.80;52.80;;;13.75;100.00;95267.00;5029573;28;19913;-48
2023/06/11 03:58:55;;;;;;;;;;;17.80;52.80;;;13.73;100.00;95266.53;5009805;28;20324;-49
2023/06/11 04:01:21;;;;;;;;;;;17.80;52.90;;;13.70;100.00;95273.25;4997772;28;20028;-47
2023/06/11 04:03:47;;;;;;;;;;;17.80;52.90;;;13.69;100.00;95266.28;5024822;28;20006;-50
2023/06/11 04:06:15;;;;;;;;;;;17.80;53.00;;;13.68;100.00;95269.28;5006315;28;20348;-50
2023/06/11 04:08:41;;;;;;;;;;;17.80;53.10;;;13.70;100.00;95278.59;4998469;28;19913;-52
2023/06/11 04:11:08;;;;;;;;;;;17.80;53.20;;;13.76;100.00;95277.44;5009358;28;19919;-50
2023/06/11 04:13:34;;;;;;;;;;;17.80;53.30;;;13.86;100.00;95271.91;5003855;28;20355;-53
2023/06/11 04:15:59;;;;;;;;;;;17.80;53.40;;;14.08;100.00;95263.25;5004916;28;19983;-46
2023/06/11 04:18:26;;;;;;;;;;;17.90;53.60;;;14.35;100.00;95275.91;5003656;28;19960;-46
2023/06/11 04:20:52;;;;;;;;;;;18.00;53.70;;;14.59;100.00;95280.31;5004908;28;20297;-46
2023/06/11 04:23:18;;;;;;;;;;;18.10;53.70;;;14.83;100.00;95279.34;5009223;28;19909;-47
2023/06/11 04:25:43;;;;;;;;;;;18.30;53.70;;;15.08;100.00;95278.06;4995733;28;20387;-48
2023/06/11 04:28:10;;;;;;;;;;;18.50;53.80;;;15.32;100.00;95275.91;5009652;28;20387;-47
2023/06/11 04:30:36;;;;;;;;;;;18.60;53.60;;;15.55;98.57;95274.06;5004692;28;19924;-48
2023/06/11 04:33:04;;;;;;;;;;;18.80;53.60;;;15.78;96.85;95274.91;5009074;28;19932;-49
2023/06/11 04:35:33;;;;;;;;;;;19.00;53.50;;;15.95;93.95;95271.53;5007927;28;19913;-48
2023/06/11 04:37:58;;;;;;;;;;;19.20;53.40;;;16.15;93.00;95273.72;5001007;28;20014;-47
2023/06/11 04:40:25;;;;;;;;;;;19.40;53.30;;;16.36;91.01;95275.91;5008842;28;19948;-46
2023/06/11 04:42:50;;;;;;;;;;;19.60;53.10;;;16.49;89.51;95274.25;5002287;28;19948;-46
2023/06/11 04:45:18;;;;;;;;;;;19.80;53.00;;;16.60;88.76;95275.53;5004885;28;19937;-47
2023/06/11 04:47:45;;;;;;;;;;;20.00;53.50;;;16.73;88.04;95277.31;5008879;28;19916;-47
2023/06/11 04:50:12;;;;;;;;;;;20.20;52.70;;;16.92;87.29;95279.00;4993504;28;19916;-50
2023/06/11 04:52:38;;;;;;;;;;;20.40;52.60;;;17.07;86.18;95281.28;5008738;28;20016;-48
2023/06/11 04:55:09;;;;;;;;;;;20.50;52.50;;;17.26;85.33;95275.63;5002229;28;19918;-48
2023/06/11 04:57:36;;;;;;;;;;;20.70;52.30;;;17.43;83.76;95285.63;5008683;28;19916;-50
2023/06/11 05:00:10;;;;;;;;;;;20.90;52.10;;;17.51;83.47;95291.00;5008321;28;20399;-50
2023/06/11 05:02:43;;;;;;;;;;;21.10;52.00;;;17.69;81.61;95297.19;4994055;28;20284;-48
2023/06/11 05:05:09;;;;;;;;;;;21.30;51.80;;;17.88;81.57;95299.63;5007122;28;19996;-51
2023/06/11 05:07:35;;;;;;;;;;;21.50;51.60;;;18.03;80.56;95301.03;4983304;28;19999;-51
2023/06/11 05:10:01;;;;;;;;;;;21.70;51.40;;;18.10;79.86;95289.78;4995139;28;19909;-48
2023/06/11 05:12:27;;;;;;;;;;;21.90;51.20;;;18.26;79.46;95296.25;4991601;28;20910;-46
2023/06/11 05:14:53;;;;;;;;;;;22.10;51.10;;;18.41;79.03;95286.84;4989729;28;19921;-47
2023/06/11 05:17:18;;;;;;;;;;;22.20;50.90;;;18.51;77.95;95286.50;4995241;28;19909;-50
2023/06/11 05:19:44;;;;;;;;;;;22.40;50.80;;;18.67;77.08;95292.94;4986859;28;20487;-48
2023/06/11 05:22:10;;;;;;;;;;;22.60;50.60;;;18.81;76.51;95292.78;4995192;28;19913;-51
2023/06/11 05:24:36;;;;;;;;;;;22.70;50.40;;;18.90;76.11;95298.94;4989806;28;20265;-52
2023/06/11 05:27:03;;;;;;;;;;;22.90;50.30;;;18.97;75.85;95301.13;4975434;28;19920;-49
2023/06/11 05:29:30;;;;;;;;;;;23.10;50.10;;;19.15;74.48;95299.94;4994965;28;20276;-51
2023/06/11 05:31:56;;;;;;;;;;;23.20;50.00;;;19.25;74.16;95303.38;4992473;28;19909;-46
2023/06/11 05:34:23;;;;;;;;;;;23.40;49.90;;;19.31;73.85;95302.88;4994886;28;19909;-50
2023/06/11 05:36:49;;;;;;;;;;;23.60;49.70;;;19.36;73.72;95308.06;4988309;28;19916;-52
2023/06/11 05:39:15;;;;;;;;;;;23.70;49.40;;;19.49;73.34;95308.97;4980506;28;19910;-48
2023/06/11 05:41:41;;;;;;;;;;;23.80;49.30;;;19.61;72.64;95309.00;4994784;28;19916;-48
2023/06/11 05:44:07;;;;;;;;;;;24.00;49.10;;;19.67;72.54;95303.47;4983289;28;19910;-49
2023/06/11 05:46:33;;;;;;;;;;;24.10;48.90;;;19.74;71.86;95309.13;4988438;28;20283;-47
2023/06/11 05:49:01;;;;;;;;;;;24.30;48.80;;;19.79;71.08;95306.22;4974379;28;19909;-47
2023/06/11 05:51:27;;;;;;;;;;;24.40;48.60;;;19.78;72.19;95307.38;4988246;28;20360;-47
2023/06/11 05:53:52;;;;;;;;;;;24.50;48.30;;;19.90;71.01;95320.13;4994494;28;20012;-47
2023/06/11 05:56:18;;;;;;;;;;;24.70;48.20;;;20.00;70.32;95319.75;4988536;28;19921;-51
2023/06/11 05:58:44;;;;;;;;;;;24.80;48.00;;;20.04;70.40;95316.03;4994641;28;19915;-47
2023/06/11 06:01:12;;;;;;;;;;;24.90;47.90;;;20.03;70.70;95314.47;4985157;28;20280;-48
2023/06/11 06:03:38;;;;;;;;;;;25.00;47.70;;;20.10;69.92;95314.72;4968772;28;20024;-49
2023/06/11 06:06:03;;;;;;;;;;;25.20;47.50;;;20.18;69.68;95314.97;4992390;28;19921;-46
2023/06/11 06:08:31;;;;;;;;;;;25.30;47.40;;;20.31;69.64;95317.41;4980818;28;20359;-48
2023/06/11 06:10:58;;;;;;;;;;;25.30;47.20;;;20.50;68.62;95318.81;4994242;28;20346;-49
2023/06/11 06:13:24;;;;;;;;;;;25.50;47.10;;;20.58;68.48;95320.66;4990987;28;20004;-48
2023/06/11 06:15:50;;;;;;;;;;;25.60;47.00;;;20.71;67.63;95324.97;4987877;28;20023;-48
2023/06/11 06:18:16;;;;;;;;;;;25.80;46.80;;;20.65;67.09;95331.75;4991206;28;20375;-48
2023/06/11 06:20:43;;;;;;;;;;;26.00;46.70;;;20.65;67.96;95323.63;4988446;28;19939;-51
2023/06/11 06:23:09;;;;;;;;;;;26.10;46.50;;;20.74;66.49;95328.91;4977232;28;19959;-48
2023/06/11 06:25:37;;;;;;;;;;;26.20;46.30;;;20.71;66.57;95333.06;4974838;28;19914;-47
2023/06/11 06:28:05;;;;;;;;;;;26.30;46.10;;;20.74;67.48;95332.41;4986455;28;20299;-49
2023/06/11 06:30:32;;;;;;;;;;;26.40;45.90;;;20.90;66.77;95337.16;4987737;28;19920;-47
2023/06/11 06:33:00;;;;;;;;;;;26.60;45.80;;;21.20;65.88;95333.16;4993801;28;19909;-47
2023/06/11 06:35:25;;;;;;;;;;;26.60;46.20;;;21.37;65.26;95336.78;4993657;28;19913;-47
2023/06/11 06:37:51;;;;;;;;;;;26.80;45.50;;;21.45;64.33;95339.38;4977559;28;19921;-46
2023/06/11 06:40:17;;;;;;;;;;;26.90;45.40;;;21.40;63.92;95336.09;4978297;28;19956;-47
2023/06/11 06:42:43;;;;;;;;;;;27.00;45.00;;;21.26;64.66;95344.56;4985363;28;19909;-47
2023/06/11 06:45:09;;;;;;;;;;;27.10;44.80;;;21.21;65.42;95339.34;4989349;28;19920;-47
2023/06/11 06:47:35;;;;;;;;;;;27.20;44.60;;;21.37;63.78;95344.91;4993536;28;19916;-49
2023/06/11 06:50:00;;;;;;;;;;;27.30;44.60;;;21.37;63.77;95337.59;4980203;28;19909;-50
2023/06/11 06:52:27;;;;;;;;;;;27.40;44.40;;;21.15;65.85;95344.22;4993353;28;20399;-50
2023/06/11 06:54:53;;;;;;;;;;;27.40;44.20;;;21.15;65.39;95346.13;4988420;28;19956;-49
2023/06/11 06:57:19;;;;;;;;;;;27.60;44.10;;;21.52;64.52;95346.94;4993052;28;19956;-47
2023/06/11 06:59:45;;;;;;;;;;;27.60;44.60;;;21.89;63.26;95350.38;4993206;28;19910;-51
2023/06/11 07:02:10;;;;;;;;;;;27.80;44.00;;;22.05;61.79;95357.81;4984570;28;19940;-49
2023/06/11 07:04:36;;;;;;;;;;;27.90;43.80;;;22.21;61.11;95347.84;4993357;28;19909;-48
2023/06/11 07:07:02;;;;;;;;;;;28.00;43.70;;;22.30;61.63;95350.41;4984334;28;19921;-52
2023/06/11 07:09:28;;;;;;;;;;;28.20;43.50;;;22.46;61.00;95350.47;4988426;28;20387;-50
2023/06/11 07:11:54;;;;;;;;;;;28.30;43.40;;;22.43;60.49;95349.22;4992917;28;20291;-49
2023/06/11 07:14:20;;;;;;;;;;;28.50;43.20;;;22.59;60.14;95355.50;4983657;28;19917;-47
2023/06/11 07:16:46;;;;;;;;;;;28.60;43.00;;;22.55;60.01;95348.38;4993101;28;19909;-48
2023/06/11 07:19:11;;;;;;;;;;;28.70;42.80;;;22.74;59.44;95347.72;4984286;28;19916;-48
2023/06/11 07:21:38;;;;;;;;;;;28.80;42.60;;;22.59;59.07;95360.13;4993131;28;19944;-50
2023/06/11 07:24:05;;;;;;;;;;;28.90;42.30;;;22.65;59.61;95350.59;4992906;28;19979;-48
2023/06/11 07:26:31;;;;;;;;;;;29.00;42.10;;;22.80;59.20;95368.84;4981467;28;19948;-51
2023/06/11 07:28:58;;;;;;;;;;;29.00;42.00;;;22.78;58.89;95356.75;4992475;28;19909;-48
2023/06/11 07:31:25;;;;;;;;;;;29.20;41.90;;;22.71;58.28;95360.06;4990395;28;19916;-49
2023/06/11 07:33:51;;;;;;;;;;;29.30;41.80;;;22.82;58.69;95358.44;4992214;28;19916;-47
2023/06/11 07:36:18;;;;;;;;;;;29.40;41.70;;;23.16;57.82;95361.66;4989354;28;19917;-52
2023/06/11 07:38:44;;;;;;;;;;;29.60;41.50;;;23.44;56.88;95363.47;4988548;28;20451;-49
2023/06/11 07:41:13;;;;;;;;;;;29.80;41.50;;;23.55;56.64;95361.78;4992695;28;19917;-49
2023/06/11 07:43:39;;;;;;;;;;;30.00;41.40;;;23.66;56.80;95359.31;4982512;28;20012;-52
2023/06/11 07:46:05;;;;;;;;;;;30.20;41.20;;;23.99;55.59;95361.63;4991288;28;19917;-52
2023/06/11 07:48:31;;;;;;;;;;;30.30;41.00;;;23.94;54.40;95359.19;4989587;28;20451;-49
2023/06/11 07:50:58;;;;;;;;;;;30.50;40.90;;;24.23;53.86;95364.09;4982220;28;19916;-49
2023/06/11 07:53:24;;;;;;;;;;;30.60;40.70;;;23.92;55.59;95361.50;4968218;28;19925;-48
2023/06/11 07:55:56;;;;;;;;;;;30.80;40.50;;;24.15;53.86;95358.88;4977942;28;19925;-53
2023/06/11 07:58:23;;;;;;;;;;;30.90;40.90;;;24.48;53.97;95363.06;4984167;28;19909;-48
2023/06/11 08:00:49;;;;;;;;;;;31.00;40.00;;;24.37;52.77;95360.09;5000407;28;20029;-53
2023/06/11 08:03:17;;;;;;;;;;;31.10;39.80;;;24.42;53.06;95355.19;4989912;28;19909;-48
2023/06/11 08:05:43;;;;;;;;;;;31.20;39.50;;;24.66;52.93;95370.44;5007880;28;19909;-53
2023/06/11 08:08:09;;;;;;;;;;;31.40;39.40;;;24.55;52.94;95355.81;4978373;28;19915;-54
2023/06/11 08:10:35;;;;;;;;;;;31.30;39.30;;;24.71;52.75;95363.91;4992635;28;19955;-47
2023/06/11 08:13:01;;;;;;;;;;;31.40;39.10;;;25.34;50.77;95362.69;4988025;28;19928;-47
2023/06/11 08:15:30;;;;;;;;;;;31.60;39.00;;;25.36;50.77;95357.66;4979141;28;20380;-47
2023/06/11 08:17:56;;;;;;;;;;;31.90;38.80;;;25.45;50.59;95360.94;4986556;28;20343;-47
2023/06/11 08:20:22;;;;;;;;;;;32.00;38.70;;;25.20;50.69;95354.28;4980543;28;19910;-50
2023/06/11 08:22:48;;;;;;;;;;;32.00;38.60;;;25.70;50.02;95357.78;4992131;28;19936;-49
2023/06/11 08:25:14;;;;;;;;;;;32.10;38.30;;;25.63;49.57;95361.19;4981594;28;20399;-52
2023/06/11 08:27:40;;;;;;;;;;;32.40;38.20;;;25.92;49.58;95358.94;4990272;28;19920;-49
2023/06/11 08:30:07;;;;;;;;;;;32.60;38.00;;;26.37;47.50;95366.13;4991756;28;19909;-49
2023/06/11 08:32:33;;;;;;;;;;;32.90;37.80;;;26.30;47.61;95364.13;4989694;28;19917;-48
2023/06/11 08:34:59;;;;;;;;;;;33.10;37.60;;;26.29;48.92;95367.19;4984868;28;20422;-52
2023/06/11 08:37:24;;;;;;;;;;;33.20;37.30;;;25.58;49.91;95356.06;4978139;28;20007;-54
2023/06/11 08:39:50;;;;;;;;;;;32.90;37.30;;;25.73;49.99;95357.03;4992290;28;19913;-48
2023/06/11 08:42:16;;;;;;;;;;;32.60;37.20;;;25.50;50.19;95362.56;4991466;28;19994;-47
2023/06/11 08:44:42;;;;;;;;;;;32.50;37.20;;;25.46;50.33;95367.16;4987236;28;19916;-50
2023/06/11 08:47:10;;;;;;;;;;;32.30;37.20;;;25.46;50.92;95362.50;4995789;28;19916;-49
2023/06/11 08:49:40;;;;;;;;;;;32.30;37.00;;;25.54;50.55;95358.75;4997914;28;19917;-49
2023/06/11 08:52:07;;;;;;;;;;;32.30;37.10;;;25.95;49.37;95353.53;4991954;28;20004;-48
2023/06/11 08:54:32;;;;;;;;;;;32.40;37.10;;;26.16;49.30;95358.47;5005112;28;19921;-48
2023/06/11 08:56:59;;;;;;;;;;;32.50;37.00;;;26.19;48.79;95360.44;4994299;28;19909;-46
2023/06/11 08:59:24;;;;;;;;;;;32.70;36.90;;;26.08;48.52;95356.81;4995212;28;20015;-48
2023/06/11 09:01:51;;;;;;;;;;;32.80;36.80;;;26.22;48.10;95356.97;4976563;28;20008;-51
2023/06/11 09:04:21;;;;;;;;;;;32.90;36.60;;;26.28;47.94;95355.50;4995488;28;19913;-48
2023/06/11 09:06:59;;;;;;;;;;;33.00;36.40;;;26.01;48.76;95352.03;4987816;28;19964;-48
2023/06/11 09:09:25;;;;;;;;;;;33.10;36.20;;;25.97;48.64;95359.38;4986210;28;19917;-48
2023/06/11 09:11:51;;;;;;;;;;;33.20;36.10;;;26.40;48.44;95354.47;4995131;28;20342;-51
2023/06/11 09:14:17;;;;;;;;;;;33.20;36.00;;;26.65;47.76;95349.34;4985265;28;20332;-51
2023/06/11 09:16:46;;;;;;;;;;;33.30;35.90;;;26.97;47.23;95351.59;4990863;28;20012;-50
2023/06/11 09:19:18;;;;;;;;;;;33.40;35.90;;;27.06;46.96;95354.81;4981749;28;19984;-50
2023/06/11 09:21:54;;;;;;;;;;;33.60;35.90;;;26.86;46.67;95351.50;4974226;28;19914;-52
2023/06/11 09:24:22;;;;;;;;;;;33.70;35.70;;;27.02;46.25;95351.28;4977975;28;19924;-51
2023/06/11 09:26:57;;;;;;;;;;;33.80;35.50;;;27.32;45.78;95348.44;4975511;28;19910;-48
2023/06/11 09:29:26;;;;;;;;;;;33.90;35.40;;;27.12;46.38;95350.59;4994140;28;19909;-47
2023/06/11 09:32:08;;;;;;;;;;;34.00;35.20;;;27.34;46.05;95359.00;4976544;28;19917;-51
2023/06/11 09:34:35;;;;;;;;;;;34.10;35.00;;;27.42;45.61;95349.69;4984810;28;19914;-48
2023/06/11 09:37:02;;;;;;;;;;;34.10;34.90;;;27.52;45.37;95350.94;4980272;28;19910;-47
2023/06/11 09:39:28;;;;;;;;;;;34.20;34.90;;;27.18;46.05;95360.03;4982440;28;19932;-51
2023/06/11 09:41:54;;;;;;;;;;;34.30;34.80;;;27.37;45.07;95353.56;5009612;28;19955;-53
2023/06/11 09:44:23;;;;;;;;;;;34.30;34.60;;;27.79;44.70;95352.31;4983444;28;19985;-48
2023/06/11 09:46:50;;;;;;;;;;;34.40;34.50;;;27.38;45.40;95360.59;4991816;28;19910;-51
2023/06/11 09:49:16;;;;;;;;;;;34.40;34.40;;;26.60;46.00;95348.88;4980650;28;19917;-49
2023/06/11 09:51:44;;;;;;;;;;;34.50;34.30;;;26.75;45.25;95351.38;4979566;28;20005;-51
2023/06/11 09:54:12;;;;;;;;;;;34.40;33.90;;;26.93;45.37;95346.09;4977572;28;19920;-51
2023/06/11 09:56:38;;;;;;;;;;;34.40;34.00;;;27.16;45.40;95350.63;4989923;28;20000;-49
2023/06/11 09:59:05;;;;;;;;;;;34.40;33.90;;;26.53;46.70;95358.56;4989461;28;19984;-50
2023/06/11 10:01:33;;;;;;;;;;;34.40;33.90;;;26.61;47.15;95342.28;4984686;28;19972;-50
2023/06/11 10:04:00;;;;;;;;;;;34.40;33.80;;;27.30;45.77;95347.25;4991245;28;20334;-51
2023/06/11 10:06:36;;;;;;;;;;;34.40;33.80;;;27.63;44.23;95343.59;4989931;28;19963;-51
2023/06/11 10:09:10;;;;;;;;;;;34.50;33.90;;;27.75;44.66;95353.44;4984911;28;19963;-51
2023/06/11 10:11:38;;;;;;;;;;;34.60;33.80;;;27.64;45.26;95343.22;4987779;28;19929;-52
2023/06/11 10:14:13;;;;;;;;;;;34.70;33.70;;;27.97;43.50;95346.97;4980967;28;19913;-52
2023/06/11 10:16:39;;;;;;;;;;;34.80;33.60;;;28.07;43.50;95342.72;4981788;28;20315;-53
2023/06/11 10:19:10;;;;;;;;;;;34.90;33.60;;;27.83;43.84;95350.41;5001533;28;19917;-52
2023/06/11 10:21:44;;;;;;;;;;;35.00;33.40;;;27.07;44.50;95345.44;4994062;28;19917;-52
2023/06/11 10:24:21;;;;;;;;;;;35.10;33.20;;;27.48;44.34;95348.16;5008535;28;19933;-49
2023/06/11 10:27:11;;;;;;;;;;;35.20;33.00;;;28.11;43.50;95343.50;4975662;28;20298;-52
2023/06/11 10:29:40;;;;;;;;;;;35.30;33.00;;;28.36;43.12;95347.19;4969808;28;19913;-52
2023/06/11 10:32:23;;;;;;;;;;;35.50;33.10;;;28.19;42.86;95342.38;4990531;28;20425;-54
2023/06/11 10:35:03;;;;;;;;;;;35.20;33.00;;;27.43;44.19;95343.06;4994366;28;19914;-51
2023/06/11 10:37:28;;;;;;;;;;;34.90;33.20;;;27.75;43.96;95350.72;4987674;28;20276;-54
2023/06/11 10:39:54;;;;;;;;;;;34.90;33.00;;;27.82;42.91;95340.63;4993724;28;19910;-48
2023/06/11 10:42:37;;;;;;;;;;;35.10;32.90;;;27.94;43.46;95341.47;4990502;28;19920;-48
2023/06/11 10:45:13;;;;;;;;;;;35.20;32.70;;;28.28;42.60;95350.25;4986700;28;19910;-49
2023/06/11 10:47:54;;;;;;;;;;;35.40;32.50;;;28.28;43.10;95345.56;4984050;28;19956;-48
2023/06/11 10:50:31;;;;;;;;;;;35.60;32.40;;;28.68;41.00;95340.28;4975006;28;19942;-48
2023/06/11 10:53:07;;;;;;;;;;;35.70;32.20;;;28.74;40.75;95336.75;4993447;28;19909;-48
2023/06/11 10:55:34;;;;;;;;;;;35.90;32.90;;;28.97;40.49;95339.16;4988010;28;20020;-47
2023/06/11 10:58:02;;;;;;;;;;;36.00;32.00;;;28.63;41.05;95340.63;4981154;28;19913;-51
2023/06/11 11:00:32;;;;;;;;;;;36.10;31.60;;;29.24;40.00;95325.91;4976012;28;20020;-50
2023/06/11 11:03:03;;;;;;;;;;;36.20;31.60;;;28.50;40.02;95332.78;4987638;28;19909;-48
2023/06/11 11:05:29;;;;;;;;;;;36.30;31.30;;;28.19;41.33;95319.72;4983739;28;19942;-51
2023/06/11 11:07:55;;;;;;;;;;;36.30;31.10;;;28.14;42.29;95326.31;4974762;28;19910;-49
2023/06/11 11:10:27;;;;;;;;;;;36.30;31.10;;;28.06;42.81;95330.22;4985665;28;19916;-49
2023/06/11 11:12:54;;;;;;;;;;;36.30;31.10;;;28.64;41.24;95333.97;4979439;28;19913;-50
2023/06/11 11:15:20;;;;;;;;;;;36.30;31.00;;;29.29;39.22;95325.50;5002623;28;19917;-51
2023/06/11 11:17:47;;;;;;;;;;;36.50;31.10;;;29.19;39.55;95315.31;4905887;28;23376;-49
2023/06/11 11:20:20;;;;;;;;;;;36.60;30.90;;;28.01;40.59;95327.81;4949179;28;20001;-49